Time;durP1;ratioP1;P1;durP2;ratioP2;P2;SDS_P1;SDS_P2;PMS_P1;PMS_P2;Temp;Humidity;BMP_temperature;BMP_pressure;BME280_temperature;BME280_humidity;BME280_pressure;Samples;Min_cycle;Max_cycle;Signal;HPM_P1;HPM_P2
2021/06/08 00:05:21;;;;;;;16.25;11.57;;;17.60;99.90;;;;;;6737765;88;20197;-78
2021/06/08 00:15:22;;;;;;;13.55;10.73;;;17.50;99.90;;;;;;6737746;88;20895;-77
2021/06/08 00:25:23;;;;;;;16.10;12.13;;;17.40;99.90;;;;;;6736694;88;20192;-77
2021/06/08 00:35:25;;;;;;;14.70;11.45;;;17.40;99.90;;;;;;6736840;88;20526;-78
2021/06/08 00:45:26;;;;;;;15.55;11.20;;;17.40;99.90;;;;;;6736620;88;20245;-79
2021/06/08 00:55:26;;;;;;;16.95;13.20;;;17.30;99.90;;;;;;6736302;88;20360;-78
2021/06/08 01:05:27;;;;;;;17.08;12.43;;;17.30;99.90;;;;;;6736393;88;20183;-78
2021/06/08 01:15:28;;;;;;;16.58;12.45;;;17.40;99.90;;;;;;6736102;88;20239;-78
2021/06/08 01:25:28;;;;;;;19.48;14.05;;;17.30;99.90;;;;;;6735935;88;20192;-77
2021/06/08 01:35:30;;;;;;;17.17;12.82;;;17.30;99.90;;;;;;6732736;88;20202;-78
2021/06/08 01:45:31;;;;;;;17.35;13.32;;;17.20;99.90;;;;;;6738411;88;20197;-78
2021/06/08 01:55:37;;;;;;;17.83;13.65;;;17.20;99.90;;;;;;6739521;88;20197;-78
2021/06/08 02:06:12;;;;;;;18.87;13.82;;;17.20;99.90;;;;;;6739152;88;20196;-77
2021/06/08 02:16:22;;;;;;;20.15;14.18;;;17.20;99.90;;;;;;6738554;88;20235;-77
2021/06/08 02:26:25;;;;;;;19.15;14.23;;;17.10;99.90;;;;;;6738069;88;20301;-78
2021/06/08 02:36:25;;;;;;;19.92;14.87;;;17.00;99.90;;;;;;6737204;88;20358;-79
2021/06/08 02:46:27;;;;;;;18.43;14.10;;;17.00;99.90;;;;;;6738146;88;20189;-78
2021/06/08 02:56:28;;;;;;;20.40;15.50;;;17.00;99.90;;;;;;6736614;88;20493;-77
2021/06/08 03:06:42;;;;;;;21.35;15.43;;;17.10;99.90;;;;;;6737309;88;20262;-79
2021/06/08 03:16:51;;;;;;;18.00;14.15;;;17.00;99.90;;;;;;6737346;88;20356;-78
2021/06/08 03:26:53;;;;;;;19.98;14.35;;;16.90;99.90;;;;;;6737575;88;20181;-78
2021/06/08 03:36:55;;;;;;;21.02;15.75;;;16.90;99.90;;;;;;6737401;88;20180;-77
2021/06/08 03:46:56;;;;;;;22.20;15.35;;;16.80;99.90;;;;;;6737134;88;20246;-78
2021/06/08 03:56:57;;;;;;;22.08;15.68;;;16.80;99.90;;;;;;6737249;88;20404;-77
2021/06/08 04:06:58;;;;;;;22.10;15.80;;;16.90;99.90;;;;;;6737996;88;20176;-77
2021/06/08 04:16:59;;;;;;;23.67;17.05;;;16.90;99.90;;;;;;6736896;88;20202;-77
2021/06/08 04:27:00;;;;;;;22.75;16.60;;;17.00;99.90;;;;;;6740245;88;20208;-79
2021/06/08 04:37:00;;;;;;;22.85;17.52;;;17.10;99.90;;;;;;6740949;88;20342;-77
2021/06/08 04:47:01;;;;;;;22.27;16.15;;;17.20;99.90;;;;;;6737344;88;20637;-78
2021/06/08 04:57:04;;;;;;;27.40;18.58;;;17.50;99.90;;;;;;6737286;88;20217;-78
2021/06/08 05:07:08;;;;;;;28.42;18.10;;;17.80;99.90;;;;;;6737944;88;20273;-77
2021/06/08 05:17:09;;;;;;;23.65;17.50;;;18.00;99.90;;;;;;6737016;88;20184;-78
2021/06/08 05:27:10;;;;;;;25.77;17.90;;;18.40;99.90;;;;;;6735046;88;20181;-77
2021/06/08 05:37:12;;;;;;;27.73;18.27;;;18.80;99.90;;;;;;6738806;88;20250;-76
2021/06/08 05:47:13;;;;;;;26.60;17.65;;;18.90;99.90;;;;;;6739143;88;20223;-77
2021/06/08 05:57:14;;;;;;;26.15;18.25;;;19.00;99.90;;;;;;6742245;88;20236;-77
2021/06/08 06:07:16;;;;;;;25.83;18.33;;;19.20;99.90;;;;;;6743041;88;20188;-77
2021/06/08 06:17:18;;;;;;;24.40;18.37;;;19.40;99.90;;;;;;6744049;88;20195;-79
2021/06/08 06:27:19;;;;;;;25.95;17.55;;;19.90;99.90;;;;;;6750720;88;20267;-79
2021/06/08 06:37:23;;;;;;;23.62;17.00;;;20.40;99.90;;;;;;6744043;88;20205;-77
2021/06/08 06:47:23;;;;;;;23.50;15.63;;;21.80;99.90;;;;;;6737495;88;20648;-78
2021/06/08 06:57:24;;;;;;;20.90;15.18;;;22.50;99.90;;;;;;6746298;87;20270;-79
2021/06/08 07:07:25;;;;;;;17.05;12.98;;;23.00;99.90;;;;;;6768511;87;20236;-80
2021/06/08 07:17:26;;;;;;;17.33;12.65;;;23.70;99.90;;;;;;6773956;87;20204;-80
2021/06/08 07:27:27;;;;;;;18.02;13.30;;;24.40;99.90;;;;;;6775356;87;20201;-80
2021/06/08 07:37:30;;;;;;;14.27;10.67;;;24.70;99.90;;;;;;6777945;87;20193;-80
2021/06/08 07:47:32;;;;;;;14.70;10.53;;;24.40;99.90;;;;;;6781604;87;21240;-80
2021/06/08 07:57:35;;;;;;;11.65;8.25;;;24.30;99.90;;;;;;6785617;87;20268;-80
2021/06/08 08:07:37;;;;;;;11.38;7.93;;;24.20;99.90;;;;;;6785196;87;20160;-82
2021/06/08 08:17:39;;;;;;;12.02;8.00;;;24.60;99.90;;;;;;6748647;88;20169;-82
2021/06/08 08:27:39;;;;;;;9.60;7.72;;;25.60;99.90;;;;;;6713014;88;20237;-82
2021/06/08 08:37:40;;;;;;;9.47;7.00;;;25.10;99.90;;;;;;6679887;89;20168;-80
2021/06/08 08:47:42;;;;;;;10.00;7.25;;;24.20;99.90;;;;;;6689878;89;20169;-82
2021/06/08 08:57:43;;;;;;;7.07;5.62;;;23.80;99.90;;;;;;6715082;88;20423;-83
2021/06/08 09:07:44;;;;;;;10.02;7.62;;;24.20;99.90;;;;;;6744040;88;20247;-83
2021/06/08 09:17:45;;;;;;;8.32;5.78;;;24.50;99.90;;;;;;6752943;88;20215;-83
2021/06/08 09:27:46;;;;;;;6.97;5.40;;;24.10;99.90;;;;;;6756878;88;20283;-83
2021/06/08 09:37:46;;;;;;;9.15;5.87;;;24.50;99.90;;;;;;6757564;87;20215;-82
2021/06/08 09:47:58;;;;;;;11.45;6.55;;;24.60;99.90;;;;;;6759725;87;20261;-81
2021/06/08 09:58:10;;;;;;;8.90;5.78;;;25.00;99.40;;;;;;6763241;87;20199;-80
2021/06/08 10:08:10;;;;;;;8.15;6.22;;;25.40;98.10;;;;;;6724391;88;20174;-80
2021/06/08 10:18:11;;;;;;;11.13;7.33;;;25.60;97.90;;;;;;6761039;87;20189;-82
2021/06/08 10:28:12;;;;;;;7.90;6.07;;;25.30;98.80;;;;;;6763477;87;20814;-79
2021/06/08 10:38:12;;;;;;;10.07;6.55;;;25.70;97.90;;;;;;6757802;88;20208;-82
2021/06/08 10:48:17;;;;;;;8.18;6.03;;;25.00;99.10;;;;;;6748315;88;20310;-80
2021/06/08 10:58:42;;;;;;;8.98;6.25;;;25.00;99.10;;;;;;6768636;87;20200;-81
2021/06/08 11:08:59;;;;;;;7.78;6.28;;;25.40;98.20;;;;;;6751442;88;20165;-81
2021/06/08 11:19:01;;;;;;;7.37;6.55;;;25.90;96.70;;;;;;6752421;88;20348;-81
2021/06/08 11:29:02;;;;;;;8.90;6.70;;;26.50;94.30;;;;;;6755554;88;20773;-81
2021/06/08 11:39:18;;;;;;;7.60;6.05;;;26.50;94.30;;;;;;6758821;88;20189;-80
2021/06/08 11:49:20;;;;;;;8.45;6.00;;;26.50;94.30;;;;;;6760275;88;20177;-81
2021/06/08 11:59:26;;;;;;;8.02;5.12;;;26.70;93.30;;;;;;6762503;87;20208;-82
2021/06/08 12:09:29;;;;;;;6.55;4.97;;;27.50;90.90;;;;;;6755034;88;20254;-79
2021/06/08 12:19:34;;;;;;;5.82;4.80;;;30.20;79.60;;;;;;6758082;88;20204;-78
2021/06/08 12:29:51;;;;;;;7.45;6.07;;;29.20;77.50;;;;;;6757828;88;20188;-78
2021/06/08 12:39:56;;;;;;;8.60;7.05;;;27.80;82.30;;;;;;6738933;88;20169;-78
2021/06/08 12:49:58;;;;;;;8.50;7.40;;;27.10;84.60;;;;;;6735742;88;20667;-78
2021/06/08 13:00:20;;;;;;;11.33;9.20;;;27.20;88.00;;;;;;6734823;88;20266;-78
2021/06/08 13:10:26;;;;;;;11.85;8.40;;;28.20;83.10;;;;;;6734590;88;20637;-78
2021/06/08 13:20:30;;;;;;;6.68;5.97;;;29.70;78.50;;;;;;6734339;88;20193;-78
2021/06/08 13:30:31;;;;;;;9.80;7.70;;;28.70;77.50;;;;;;6733745;88;20272;-77
2021/06/08 13:40:41;;;;;;;9.80;7.57;;;27.30;82.40;;;;;;6735857;88;20323;-77
2021/06/08 13:50:42;;;;;;;9.30;7.50;;;27.10;85.50;;;;;;6736521;88;20249;-77
2021/06/08 14:00:42;;;;;;;10.15;7.80;;;27.60;84.10;;;;;;6734486;88;20217;-78
2021/06/08 14:10:51;;;;;;;8.18;6.97;;;28.10;81.70;;;;;;6737007;88;20213;-78
2021/06/08 14:20:51;;;;;;;10.63;7.32;;;28.90;80.70;;;;;;6736830;88;20730;-77
2021/06/08 14:30:52;;;;;;;7.68;6.22;;;29.90;76.50;;;;;;6736748;88;20282;-79
2021/06/08 14:40:52;;;;;;;8.18;7.03;;;29.70;76.60;;;;;;6736213;88;20314;-78
2021/06/08 14:50:53;;;;;;;9.68;6.85;;;29.80;75.10;;;;;;6736039;88;20221;-77
2021/06/08 15:00:54;;;;;;;10.82;6.87;;;29.30;75.50;;;;;;6736857;88;20242;-78
2021/06/08 15:10:55;;;;;;;9.73;7.95;;;28.50;78.20;;;;;;6735843;88;20752;-77
2021/06/08 15:20:55;;;;;;;7.30;6.50;;;28.90;76.50;;;;;;6735724;88;20304;-77
2021/06/08 15:30:56;;;;;;;7.55;6.07;;;28.80;75.40;;;;;;6742291;88;20316;-77
2021/06/08 15:40:57;;;;;;;8.13;5.75;;;28.20;76.10;;;;;;6735401;88;21041;-78
2021/06/08 15:51:01;;;;;;;9.23;5.82;;;29.30;74.30;;;;;;6735839;88;20188;-77
2021/06/08 16:01:02;;;;;;;7.60;5.22;;;29.50;70.90;;;;;;6738592;88;20218;-78
2021/06/08 16:11:03;;;;;;;7.50;5.10;;;28.70;72.00;;;;;;6740584;88;20188;-76
2021/06/08 16:21:04;;;;;;;8.27;5.20;;;27.80;73.10;;;;;;6741351;88;20189;-78
2021/06/08 16:31:06;;;;;;;6.85;4.90;;;27.00;78.00;;;;;;6741865;87;20562;-75
2021/06/08 16:41:06;;;;;;;8.77;5.65;;;27.70;77.10;;;;;;6741708;88;20221;-76
2021/06/08 17:01:09;;;;;;;6.45;5.45;;;28.10;75.40;;;;;;6752149;88;20223;-77
2021/06/08 17:11:10;;;;;;;6.43;5.18;;;27.30;74.80;;;;;;6735156;88;20316;-76
2021/06/08 17:21:10;;;;;;;6.00;5.32;;;26.80;77.20;;;;;;6739955;88;20401;-76
2021/06/08 17:31:12;;;;;;;7.18;4.82;;;26.10;80.50;;;;;;6749942;88;20793;-77
2021/06/08 17:41:12;;;;;;;6.68;4.95;;;27.30;76.30;;;;;;6758494;88;20694;-77
2021/06/08 17:51:14;;;;;;;5.23;4.53;;;27.80;74.90;;;;;;6753575;88;20188;-77
2021/06/08 18:01:15;;;;;;;5.97;5.35;;;27.80;75.20;;;;;;6755920;88;20269;-77
2021/06/08 18:11:15;;;;;;;6.72;5.35;;;27.30;76.60;;;;;;6757019;88;20220;-78
2021/06/08 18:21:18;;;;;;;8.10;5.70;;;26.70;78.60;;;;;;6744497;88;20644;-80
2021/06/08 18:31:20;;;;;;;6.60;5.80;;;27.30;77.00;;;;;;6759448;88;20193;-80
2021/06/08 18:41:21;;;;;;;8.27;5.97;;;26.10;79.80;;;;;;6760898;87;20180;-80
2021/06/08 18:51:22;;;;;;;6.80;5.65;;;25.00;87.30;;;;;;6761293;88;20214;-78
2021/06/08 19:01:23;;;;;;;8.30;6.68;;;24.40;91.60;;;;;;6751390;88;20582;-78
2021/06/08 19:11:23;;;;;;;9.13;6.60;;;23.70;99.90;;;;;;6747415;88;20385;-77
2021/06/08 19:21:24;;;;;;;8.75;6.30;;;23.00;99.90;;;;;;6738550;88;20315;-78
2021/06/08 19:31:28;;;;;;;7.55;6.40;;;22.80;99.90;;;;;;6752958;88;20243;-79
2021/06/08 19:41:29;;;;;;;8.38;6.07;;;22.40;99.90;;;;;;6750090;88;20214;-78
2021/06/08 19:51:30;;;;;;;9.45;6.20;;;21.90;99.90;;;;;;6742006;88;20635;-78
2021/06/08 20:01:31;;;;;;;7.65;6.18;;;21.60;99.90;;;;;;6749990;88;20617;-78
2021/06/08 20:11:32;;;;;;;7.57;6.77;;;21.30;99.90;;;;;;6750363;88;20337;-78
2021/06/08 20:21:32;;;;;;;7.10;6.40;;;21.10;99.90;;;;;;6751114;88;20517;-77
2021/06/08 20:31:33;;;;;;;11.48;7.72;;;20.80;99.90;;;;;;6750305;88;20213;-77
2021/06/08 20:41:33;;;;;;;9.73;7.82;;;20.60;99.90;;;;;;6744464;88;20749;-75
2021/06/08 20:51:35;;;;;;;10.48;7.97;;;20.40;99.90;;;;;;6749224;88;20590;-77
2021/06/08 21:01:35;;;;;;;8.55;7.65;;;20.20;99.90;;;;;;6735013;88;20245;-77
2021/06/08 21:11:36;;;;;;;13.05;9.68;;;20.20;99.90;;;;;;6751431;88;20637;-77
2021/06/08 21:21:37;;;;;;;9.73;8.05;;;19.80;99.90;;;;;;6756213;88;20223;-77
2021/06/08 21:31:38;;;;;;;8.97;7.60;;;19.50;99.90;;;;;;6758861;88;20179;-76
2021/06/08 21:41:44;;;;;;;15.05;13.40;;;19.20;99.90;;;;;;6754078;88;20202;-76
2021/06/08 21:51:44;;;;;;;10.80;9.32;;;19.10;99.90;;;;;;6756654;88;20249;-76
2021/06/08 22:01:45;;;;;;;10.35;8.65;;;18.70;99.90;;;;;;6754412;88;20301;-76
2021/06/08 22:11:46;;;;;;;12.32;8.90;;;18.70;99.90;;;;;;6749451;88;20726;-76
2021/06/08 22:21:47;;;;;;;12.45;9.98;;;18.50;99.90;;;;;;6743220;88;20624;-74
2021/06/08 22:31:47;;;;;;;14.07;10.77;;;18.30;99.90;;;;;;6753480;87;20209;-75
2021/06/08 22:41:48;;;;;;;12.80;10.10;;;18.20;99.90;;;;;;6757319;77;20201;-76
2021/06/08 22:51:49;;;;;;;13.93;9.88;;;17.90;99.90;;;;;;6765759;87;20637;-76
2021/06/08 23:01:49;;;;;;;13.75;10.15;;;17.70;99.90;;;;;;6771178;87;20199;-76
2021/06/08 23:11:52;;;;;;;14.73;9.97;;;17.50;99.90;;;;;;6766269;87;20259;-76
2021/06/08 23:21:52;;;;;;;12.23;10.73;;;17.30;99.90;;;;;;6770512;87;21020;-76
2021/06/08 23:31:53;;;;;;;12.82;10.38;;;17.10;99.90;;;;;;6781603;87;20229;-76
2021/06/08 23:41:53;;;;;;;12.43;10.40;;;17.10;99.90;;;;;;6774510;87;20227;-76
2021/06/08 23:51:54;;;;;;;13.00;10.98;;;17.10;99.90;;;;;;6765947;87;20251;-76
